Astor — C6JR3 — position and weather

sailwx.info

Track history (hours):
 
Tides and Currents Weather Stations Pressure Air Temp Water Temp Dewpoint Dewpoint Depression Visibility Wind Speed Wind Dir Waves Ship Positions

Astor

Operator: Passat Ship Management Ltd

Last reported at 2018-Apr-25 02:30 UTC. Time now 2018-Apr-25 02:40 UTC.
Position N 52°18' W 010°20'.

Length 176 m; draft 6.2 m.

Type: Ship. MMSI: 308214000.

Date/timePositionNaut miles runAvg speedWind from/ knotsBaromVisibWave heightAir tempDewpointWater temp
2018-Apr-25 02:30N 52°18' W 010°20'815.2
2018-Apr-25 02:00N 52°13' W 010°30'815.0
2018-Apr-25 01:30N 52°09' W 010°40'1013.5
2018-Apr-25 00:47N 51°59' W 010°44'914.2
2018-Apr-25 00:10N 51°51' W 010°40'314.2
2018-Apr-24 23:57N 51°48' W 010°38'713.8
2018-Apr-24 23:25N 51°42' W 010°33'1427.3
2018-Apr-24 22:54N 51°32' W 010°17'1 3.3
2018-Apr-24 22:29N 51°33' W 010°19'1324.9
2018-Apr-24 21:58N 51°33' W 009°58'4 7.5
2018-Apr-24 21:30N 51°35' W 009°53'1122.2
2018-Apr-24 20:59N 51°40' W 009°37'0 0.1
2018-Apr-24 20:30N 51°40' W 009°37'4 9.0
2018-Apr-24 20:00N 51°43' W 009°32'0 0.2
2018-Apr-24 19:29N 51°44' W 009°32'0 0.0
2018-Apr-24 18:58N 51°44' W 009°32'0 0.0
2018-Apr-24 18:28N 51°44' W 009°32'0 0.0
2018-Apr-24 17:58N 51°44' W 009°32'0 0.0
2018-Apr-24 17:28N 51°44' W 009°32'0 0.0
2018-Apr-24 17:00N 51°44' W 009°32'0 0.0
2018-Apr-24 16:30N 51°44' W 009°32'0 0.0
2018-Apr-24 16:00N 51°44' W 009°32'0 0.0
2018-Apr-24 15:30N 51°44' W 009°32'0 0.0
2018-Apr-24 14:59N 51°44' W 009°32'0 0.0
2018-Apr-24 14:30N 51°44' W 009°32'0 0.0
2018-Apr-24 14:00N 51°44' W 009°32'0 0.0
2018-Apr-24 13:31N 51°44' W 009°32'1 2.5
2018-Apr-24 13:00N 51°42' W 009°33'1019.5
2018-Apr-24 12:29N 51°36' W 009°46'3 6.9
2018-Apr-24 12:00N 51°35' W 009°50'714.5
2018-Apr-24 11:30N 51°28' W 009°54'815.6
2018-Apr-24 11:01N 51°22' W 009°46'815.2
2018-Apr-24 10:30N 51°17' W 009°37'815.3
2018-Apr-24 10:00N 51°12' W 009°28'815.2
2018-Apr-24 09:30N 51°07' W 009°18'9615.4
2018-Apr-24 03:18N 50°06' W 007°22'415.2
2018-Apr-24 03:00N 50°04' W 007°16'815.1
2018-Apr-24 02:30N 49°60' W 007°06'714.8
2018-Apr-24 02:00N 49°55' W 006°57'714.9
2018-Apr-24 01:30N 49°51' W 006°47'714.5
2018-Apr-24 01:00N 49°47' W 006°38'814.2
2018-Apr-24 00:27N 49°43' W 006°27'714.3
2018-Apr-23 23:59N 49°44' W 006°17'714.1
2018-Apr-23 23:30N 49°45' W 006°07'914.4
2018-Apr-23 22:54N 49°47' W 005°54'814.4
2018-Apr-23 22:21N 49°49' W 005°42'714.2
2018-Apr-23 21:51N 49°51' W 005°31'514.1
2018-Apr-23 21:30N 49°53' W 005°24'1214.2
2018-Apr-23 20:40N 49°56' W 005°06'414.6
2018-Apr-23 20:24N 49°60' W 005°03'10 1.1
2018-Apr-23 11:30N 50°09' W 005°03'5 8.7
2018-Apr-23 10:57N 50°06' W 004°59'612.5
2018-Apr-23 10:30N 50°05' W 004°50'714.6
2018-Apr-23 10:00N 50°05' W 004°39'815.2
2018-Apr-23 09:30N 50°05' W 004°27'815.6
2018-Apr-23 09:00N 50°05' W 004°15'915.9
2018-Apr-23 08:27N 50°05' W 004°01'916.3
2018-Apr-23 07:55N 50°05' W 003°48'716.8
2018-Apr-23 07:30N 50°05' W 003°37'817.0
2018-Apr-23 07:00N 50°06' W 003°24'816.9
2018-Apr-23 06:30N 50°08' W 003°11'816.9
2018-Apr-23 06:00N 50°09' W 002°58'816.9
2018-Apr-23 05:30N 50°11' W 002°45'3315.9
2018-Apr-23 03:26N 50°16' W 001°54'714.5
2018-Apr-23 02:59N 50°17' W 001°44'714.1
2018-Apr-23 02:30N 50°18' W 001°33'713.7
2018-Apr-23 02:00N 50°19' W 001°23'713.2
2018-Apr-23 01:30N 50°20' W 001°13'612.8
2018-Apr-23 01:00N 50°22' W 001°03'612.9
2018-Apr-23 00:31N 50°24' W 000°53'713.6
2018-Apr-23 00:00N 50°25' W 000°43'714.2
2018-Apr-22 23:30N 50°27' W 000°32'714.6
2018-Apr-22 23:00N 50°29' W 000°21'815.4
2018-Apr-22 22:30N 50°31' W 000°09'815.9
2018-Apr-22 22:00N 50°33' E 000°03'816.3
2018-Apr-22 21:30N 50°35' E 000°15'816.6
2018-Apr-22 21:00N 50°37' E 000°28'816.4
2018-Apr-22 20:30N 50°40' E 000°40'815.9
2018-Apr-22 20:00N 50°44' E 000°50'815.5
2018-Apr-22 19:30N 50°49' E 000°60'714.9
2018-Apr-22 19:00N 50°54' E 001°09'714.4
2018-Apr-22 18:30N 50°59' E 001°17'713.7
2018-Apr-22 18:01N 51°03' E 001°26'713.2
2018-Apr-22 17:30N 51°08' E 001°34'612.8
2018-Apr-22 17:00N 51°12' E 001°42'713.2
2018-Apr-22 16:30N 51°17' E 001°49'714.1
2018-Apr-22 16:01N 51°23' E 001°55'714.9
2018-Apr-22 15:31N 51°29' E 002°01'815.7
2018-Apr-22 15:00N 51°35' E 002°09'816.6
2018-Apr-22 14:30N 51°42' E 002°17'917.1
2018-Apr-22 14:01N 51°48' E 002°26'917.2
2018-Apr-22 13:31N 51°55' E 002°35'917.3
2018-Apr-22 12:58N 52°02' E 002°45'4216.5
2018-Apr-22 10:26N 52°35' E 003°26'4214.9
2018-Apr-22 07:38N 53°05' E 004°14'314.9
2018-Apr-22 07:25N 53°07' E 004°18'614.8
2018-Apr-22 07:00N 53°12' E 004°25'815.3
2018-Apr-22 06:31N 53°19' E 004°30'816.1
2018-Apr-22 06:01N 53°26' E 004°36'816.5
2018-Apr-22 05:30N 53°31' E 004°48'917.4
2018-Apr-22 05:00N 53°34' E 005°01'917.3
2018-Apr-22 04:29N 53°37' E 005°16'817.1
2018-Apr-22 04:00N 53°40' E 005°29'2616.4
2018-Apr-22 02:25N 53°48' E 006°10'815.5
2018-Apr-22 01:55N 53°50' E 006°23'614.8
2018-Apr-22 01:31N 53°52' E 006°33'1514.8
2018-Apr-22 00:30N 53°56' E 006°58'3212.9
2018-Apr-21 21:58N 53°52' E 007°52'611.9
2018-Apr-21 21:30N 53°51' E 008°01'714.3
2018-Apr-21 21:00N 53°46' E 008°11'815.1
2018-Apr-21 20:30N 53°42' E 008°21'815.7
2018-Apr-21 20:00N 53°36' E 008°30'3 5.6
2018-Apr-21 19:28N 53°34' E 008°33'0 0.0
2018-Apr-21 18:58N 53°34' E 008°33'0 0.0
2018-Apr-21 18:31N 53°34' E 008°33'0 0.0
2018-Apr-21 18:00N 53°34' E 008°33'0 0.0
2018-Apr-21 17:30N 53°34' E 008°33'0 0.0
2018-Apr-21 17:00N 53°34' E 008°33'0 0.0
2018-Apr-21 16:30N 53°34' E 008°33'0 0.0
2018-Apr-21 15:59N 53°34' E 008°33'0 0.0
2018-Apr-21 15:29N 53°34' E 008°33'0 0.0
2018-Apr-21 14:59N 53°34' E 008°33'0 0.0
2018-Apr-21 14:30N 53°34' E 008°33'1 2.8
2018-Apr-21 14:00N 53°35' E 008°32'815.1
2018-Apr-21 13:30N 53°40' E 008°23'916.8
2018-Apr-21 13:00N 53°46' E 008°11'816.2
2018-Apr-21 12:30N 53°51' E 008°01'714.2
2018-Apr-21 12:00N 53°52' E 007°49'3416.2
2018-Apr-21 09:54N 53°49' E 006°52'1216.3
2018-Apr-21 09:11N 53°47' E 006°33'316.2
2018-Apr-21 09:00N 53°46' E 006°28'1016.0
2018-Apr-21 08:23N 53°43' E 006°12'615.8
2018-Apr-21 07:59N 53°41' E 006°02'815.6
2018-Apr-21 07:27N 53°39' E 005°48'715.3
2018-Apr-21 07:00N 53°36' E 005°38'715.0
2018-Apr-21 06:31N 53°34' E 005°26'714.9
2018-Apr-21 06:01N 53°31' E 005°14'714.5
2018-Apr-21 05:31N 53°29' E 005°03'714.6
2018-Apr-21 05:01N 53°26' E 004°51'714.0
2018-Apr-21 04:31N 53°22' E 004°42'714.5
2018-Apr-21 04:00N 53°16' E 004°36'714.5
2018-Apr-21 03:30N 53°09' E 004°31'714.4
2018-Apr-21 03:01N 53°03' E 004°25'714.5
2018-Apr-21 02:31N 52°56' E 004°20'714.3
2018-Apr-21 02:00N 52°51' E 004°12'714.3
2018-Apr-21 01:31N 52°45' E 004°04'714.3
2018-Apr-21 01:01N 52°40' E 003°57'714.1
2018-Apr-21 00:30N 52°34' E 003°49'714.0
2018-Apr-21 00:01N 52°29' E 003°42'714.0
2018-Apr-20 23:31N 52°24' E 003°35'714.0
2018-Apr-20 23:00N 52°19' E 003°26'713.9
2018-Apr-20 22:30N 52°14' E 003°18'714.5
2018-Apr-20 22:01N 52°09' E 003°10'814.8
2018-Apr-20 21:29N 52°04' E 003°00'1314.7
2018-Apr-20 20:35N 51°58' E 002°41'115.4
2018-Apr-20 20:30N 51°57' E 002°39'815.6
2018-Apr-20 20:00N 51°55' E 002°27'815.9
2018-Apr-20 19:30N 51°54' E 002°14'816.3
2018-Apr-20 19:00N 51°51' E 002°02'816.0
2018-Apr-20 18:31N 51°47' E 001°51'917.0
2018-Apr-20 18:00N 51°39' E 001°48'817.0
2018-Apr-20 17:31N 51°33' E 001°38'714.5
2018-Apr-20 17:00N 51°29' E 001°29'611.5
2018-Apr-20 16:30N 51°29' E 001°19'712.7
2018-Apr-20 15:59N 51°29' E 001°09'911.6
2018-Apr-20 15:15N 51°29' E 000°55'310.6
2018-Apr-20 15:00N 51°29' E 000°51'510.5
2018-Apr-20 14:30N 51°30' E 000°43'510.0
2018-Apr-20 14:00N 51°30' E 000°35'5 9.0
2018-Apr-20 13:30N 51°29' E 000°28'4 7.9
2018-Apr-20 13:01N 51°27' E 000°23'0 0.9
2018-Apr-20 12:31N 51°27' E 000°22'0 0.0
2018-Apr-20 12:01N 51°27' E 000°22'0 0.0
2018-Apr-20 11:31N 51°27' E 000°22'0 0.0
2018-Apr-20 11:00N 51°27' E 000°22'0 0.0
2018-Apr-20 10:30N 51°27' E 000°22'0 0.0
2018-Apr-20 10:00N 51°27' E 000°22'0 0.0
2018-Apr-20 09:30N 51°27' E 000°22'0 0.0
2018-Apr-20 09:00N 51°27' E 000°22'0 0.0
2018-Apr-20 08:30N 51°27' E 000°22'3 5.7
2018-Apr-20 08:00N 51°27' E 000°26'5 9.7
2018-Apr-20 07:30N 51°30' E 000°33'611.3
2018-Apr-20 07:00N 51°30' E 000°42'611.2
2018-Apr-20 06:29N 51°30' E 000°51'511.2
2018-Apr-20 06:00N 51°29' E 000°60'611.7
2018-Apr-20 05:30N 51°29' E 001°09'711.7
2018-Apr-20 04:55N 51°29' E 001°20'512.2
2018-Apr-20 04:30N 51°27' E 001°28'713.2
2018-Apr-20 04:01N 51°22' E 001°35'816.1
2018-Apr-20 03:30N 51°15' E 001°38'917.1
2018-Apr-20 03:00N 51°06' E 001°39'1019.3
2018-Apr-20 02:30N 50°58' E 001°32'1020.1
2018-Apr-20 02:00N 50°48' E 001°27'4217.7
2018-Apr-19 23:37N 50°26' E 000°30'319.4
2018-Apr-19 23:29N 50°25' E 000°26'1019.7
2018-Apr-19 23:00N 50°22' E 000°12'1019.7
2018-Apr-19 22:30N 50°19' W 000°02'1019.6
2018-Apr-19 22:00N 50°16' W 000°17'1019.7
2018-Apr-19 21:30N 50°13' W 000°32'1019.6
2018-Apr-19 21:00N 50°10' W 000°46'1019.3
2018-Apr-19 20:30N 50°08' W 001°01'918.8
2018-Apr-19 20:01N 50°06' W 001°15'918.0
2018-Apr-19 19:30N 50°03' W 001°29'917.1
2018-Apr-19 19:00N 50°01' W 001°42'816.4
2018-Apr-19 18:30N 49°59' W 001°54'815.7
2018-Apr-19 18:01N 49°57' W 002°06'715.0
2018-Apr-19 17:31N 49°55' W 002°17'814.7
2018-Apr-19 16:56N 49°52' W 002°29'614.7
2018-Apr-19 16:30N 49°50' W 002°39'714.8
2018-Apr-19 16:00N 49°48' W 002°50'714.9
2018-Apr-19 15:30N 49°44' W 002°60'815.1
2018-Apr-19 15:00N 49°41' W 003°10'715.0
2018-Apr-19 14:31N 49°38' W 003°21'1014.9
2018-Apr-19 13:50N 49°34' W 003°34'1714.9
2018-Apr-19 12:42N 49°26' W 003°57'11016.0
2018-Apr-19 05:48N 48°13' W 006°04'48615.7
2018-Apr-17 22:50N 40°33' W 009°45'515.3
2018-Apr-17 22:30N 40°28' W 009°46'815.2
2018-Apr-17 22:01N 40°21' W 009°46'815.3
2018-Apr-17 21:30N 40°13' W 009°46'815.3
2018-Apr-17 21:00N 40°05' W 009°46'815.3
2018-Apr-17 20:30N 39°58' W 009°46'815.4
2018-Apr-17 19:59N 39°50' W 009°45'715.3
2018-Apr-17 19:30N 39°42' W 009°45'815.5
2018-Apr-17 19:00N 39°35' W 009°45'815.6
2018-Apr-17 18:31N 39°27' W 009°45'815.6
2018-Apr-17 18:01N 39°19' W 009°45'815.5
2018-Apr-17 17:30N 39°11' W 009°44'815.4
2018-Apr-17 17:00N 39°04' W 009°44'815.2
2018-Apr-17 16:30N 38°56' W 009°43'815.4
2018-Apr-17 16:00N 38°48' W 009°42'815.4
2018-Apr-17 15:31N 38°41' W 009°41'713.0
2018-Apr-17 15:01N 38°38' W 009°34'713.9
2018-Apr-17 14:31N 38°37' W 009°25'510.5
2018-Apr-17 14:00N 38°40' W 009°19'5 8.6
2018-Apr-17 13:25N 38°41' W 009°13'4 9.5
2018-Apr-17 13:00N 38°42' W 009°08'1 2.1
2018-Apr-17 12:29N 38°43' W 009°07'0 0.0
2018-Apr-17 11:58N 38°43' W 009°07'0 0.0
2018-Apr-17 11:28N 38°43' W 009°07'0 0.0
2018-Apr-17 10:58N 38°43' W 009°07'0 0.0
2018-Apr-17 10:28N 38°43' W 009°07'0 0.1
2018-Apr-17 09:58N 38°43' W 009°07'0 0.0
2018-Apr-17 09:28N 38°43' W 009°07'0 0.0
2018-Apr-17 08:55N 38°43' W 009°07'0 0.0
2018-Apr-17 08:27N 38°43' W 009°07'0 0.0
2018-Apr-17 08:00N 38°43' W 009°07'0 0.0
2018-Apr-17 07:30N 38°43' W 009°07'0 0.0
2018-Apr-17 07:00N 38°43' W 009°07'0 0.0
2018-Apr-17 06:30N 38°43' W 009°07'0 0.0
2018-Apr-17 05:59N 38°43' W 009°07'2 3.2
2018-Apr-17 05:30N 38°42' W 009°09'5 9.7
2018-Apr-17 04:56N 38°41' W 009°16'512.2
2018-Apr-17 04:30N 38°38' W 009°21'713.4
2018-Apr-17 04:00N 38°33' W 009°27'5 9.7
2018-Apr-17 03:30N 38°31' W 009°33'3 5.3
2018-Apr-17 03:00N 38°30' W 009°30'611.9
2018-Apr-17 02:30N 38°24' W 009°28'611.9
2018-Apr-17 02:00N 38°18' W 009°27'611.6
2018-Apr-17 01:30N 38°12' W 009°26'611.5
2018-Apr-17 01:00N 38°07' W 009°24'611.5
2018-Apr-17 00:30N 38°01' W 009°24'611.5
2018-Apr-17 00:00N 37°55' W 009°23'611.7
2018-Apr-16 23:30N 37°50' W 009°22'611.8
2018-Apr-16 23:00N 37°44' W 009°22'612.0
2018-Apr-16 22:30N 37°37' W 009°22'  
Track history (hours):
 
Tides and Currents Weather Stations Pressure Air Temp Water Temp Dewpoint Dewpoint Depression Visibility Wind Speed Wind Dir Waves Ship Positions

Astor

Operator: Passat Ship Management Ltd

Last reported at 2018-Apr-25 02:30 UTC. Time now 2018-Apr-25 02:40 UTC.
Position N 52°18' W 010°20'.

Length 176 m; draft 6.2 m.

Type: Ship. MMSI: 308214000.

Date/timePositionNaut miles runAvg speedWind from/ knotsBaromVisibWave heightAir tempDewpointWater temp
2018-Apr-25 02:30N 52°18' W 010°20'815.2
2018-Apr-25 02:00N 52°13' W 010°30'815.0
2018-Apr-25 01:30N 52°09' W 010°40'1013.5
2018-Apr-25 00:47N 51°59' W 010°44'914.2
2018-Apr-25 00:10N 51°51' W 010°40'314.2
2018-Apr-24 23:57N 51°48' W 010°38'713.8
2018-Apr-24 23:25N 51°42' W 010°33'1427.3
2018-Apr-24 22:54N 51°32' W 010°17'1 3.3
2018-Apr-24 22:29N 51°33' W 010°19'1324.9
2018-Apr-24 21:58N 51°33' W 009°58'4 7.5
2018-Apr-24 21:30N 51°35' W 009°53'1122.2
2018-Apr-24 20:59N 51°40' W 009°37'0 0.1
2018-Apr-24 20:30N 51°40' W 009°37'4 9.0
2018-Apr-24 20:00N 51°43' W 009°32'0 0.2
2018-Apr-24 19:29N 51°44' W 009°32'0 0.0
2018-Apr-24 18:58N 51°44' W 009°32'0 0.0
2018-Apr-24 18:28N 51°44' W 009°32'0 0.0
2018-Apr-24 17:58N 51°44' W 009°32'0 0.0
2018-Apr-24 17:28N 51°44' W 009°32'0 0.0
2018-Apr-24 17:00N 51°44' W 009°32'0 0.0
2018-Apr-24 16:30N 51°44' W 009°32'0 0.0
2018-Apr-24 16:00N 51°44' W 009°32'0 0.0
2018-Apr-24 15:30N 51°44' W 009°32'0 0.0
2018-Apr-24 14:59N 51°44' W 009°32'0 0.0
2018-Apr-24 14:30N 51°44' W 009°32'0 0.0
2018-Apr-24 14:00N 51°44' W 009°32'0 0.0
2018-Apr-24 13:31N 51°44' W 009°32'1 2.5
2018-Apr-24 13:00N 51°42' W 009°33'1019.5
2018-Apr-24 12:29N 51°36' W 009°46'3 6.9
2018-Apr-24 12:00N 51°35' W 009°50'714.5
2018-Apr-24 11:30N 51°28' W 009°54'815.6
2018-Apr-24 11:01N 51°22' W 009°46'815.2
2018-Apr-24 10:30N 51°17' W 009°37'815.3
2018-Apr-24 10:00N 51°12' W 009°28'815.2
2018-Apr-24 09:30N 51°07' W 009°18'9615.4
2018-Apr-24 03:18N 50°06' W 007°22'415.2
2018-Apr-24 03:00N 50°04' W 007°16'815.1
2018-Apr-24 02:30N 49°60' W 007°06'714.8
2018-Apr-24 02:00N 49°55' W 006°57'714.9
2018-Apr-24 01:30N 49°51' W 006°47'714.5
2018-Apr-24 01:00N 49°47' W 006°38'814.2
2018-Apr-24 00:27N 49°43' W 006°27'714.3
2018-Apr-23 23:59N 49°44' W 006°17'714.1
2018-Apr-23 23:30N 49°45' W 006°07'914.4
2018-Apr-23 22:54N 49°47' W 005°54'814.4
2018-Apr-23 22:21N 49°49' W 005°42'714.2
2018-Apr-23 21:51N 49°51' W 005°31'514.1
2018-Apr-23 21:30N 49°53' W 005°24'1214.2
2018-Apr-23 20:40N 49°56' W 005°06'414.6
2018-Apr-23 20:24N 49°60' W 005°03'10 1.1
2018-Apr-23 11:30N 50°09' W 005°03'5 8.7
2018-Apr-23 10:57N 50°06' W 004°59'612.5
2018-Apr-23 10:30N 50°05' W 004°50'714.6
2018-Apr-23 10:00N 50°05' W 004°39'815.2
2018-Apr-23 09:30N 50°05' W 004°27'815.6
2018-Apr-23 09:00N 50°05' W 004°15'915.9
2018-Apr-23 08:27N 50°05' W 004°01'916.3
2018-Apr-23 07:55N 50°05' W 003°48'716.8
2018-Apr-23 07:30N 50°05' W 003°37'817.0
2018-Apr-23 07:00N 50°06' W 003°24'816.9
2018-Apr-23 06:30N 50°08' W 003°11'816.9
2018-Apr-23 06:00N 50°09' W 002°58'816.9
2018-Apr-23 05:30N 50°11' W 002°45'3315.9
2018-Apr-23 03:26N 50°16' W 001°54'714.5
2018-Apr-23 02:59N 50°17' W 001°44'714.1
2018-Apr-23 02:30N 50°18' W 001°33'713.7
2018-Apr-23 02:00N 50°19' W 001°23'713.2
2018-Apr-23 01:30N 50°20' W 001°13'612.8
2018-Apr-23 01:00N 50°22' W 001°03'612.9
2018-Apr-23 00:31N 50°24' W 000°53'713.6
2018-Apr-23 00:00N 50°25' W 000°43'714.2
2018-Apr-22 23:30N 50°27' W 000°32'714.6
2018-Apr-22 23:00N 50°29' W 000°21'815.4
2018-Apr-22 22:30N 50°31' W 000°09'815.9
2018-Apr-22 22:00N 50°33' E 000°03'816.3
2018-Apr-22 21:30N 50°35' E 000°15'816.6
2018-Apr-22 21:00N 50°37' E 000°28'816.4
2018-Apr-22 20:30N 50°40' E 000°40'815.9
2018-Apr-22 20:00N 50°44' E 000°50'815.5
2018-Apr-22 19:30N 50°49' E 000°60'714.9
2018-Apr-22 19:00N 50°54' E 001°09'714.4
2018-Apr-22 18:30N 50°59' E 001°17'713.7
2018-Apr-22 18:01N 51°03' E 001°26'713.2
2018-Apr-22 17:30N 51°08' E 001°34'612.8
2018-Apr-22 17:00N 51°12' E 001°42'713.2
2018-Apr-22 16:30N 51°17' E 001°49'714.1
2018-Apr-22 16:01N 51°23' E 001°55'714.9
2018-Apr-22 15:31N 51°29' E 002°01'815.7
2018-Apr-22 15:00N 51°35' E 002°09'816.6
2018-Apr-22 14:30N 51°42' E 002°17'917.1
2018-Apr-22 14:01N 51°48' E 002°26'917.2
2018-Apr-22 13:31N 51°55' E 002°35'917.3
2018-Apr-22 12:58N 52°02' E 002°45'4216.5
2018-Apr-22 10:26N 52°35' E 003°26'4214.9
2018-Apr-22 07:38N 53°05' E 004°14'314.9
2018-Apr-22 07:25N 53°07' E 004°18'614.8
2018-Apr-22 07:00N 53°12' E 004°25'815.3
2018-Apr-22 06:31N 53°19' E 004°30'816.1
2018-Apr-22 06:01N 53°26' E 004°36'816.5
2018-Apr-22 05:30N 53°31' E 004°48'917.4
2018-Apr-22 05:00N 53°34' E 005°01'917.3
2018-Apr-22 04:29N 53°37' E 005°16'817.1
2018-Apr-22 04:00N 53°40' E 005°29'2616.4
2018-Apr-22 02:25N 53°48' E 006°10'815.5
2018-Apr-22 01:55N 53°50' E 006°23'614.8
2018-Apr-22 01:31N 53°52' E 006°33'1514.8
2018-Apr-22 00:30N 53°56' E 006°58'3212.9
2018-Apr-21 21:58N 53°52' E 007°52'611.9
2018-Apr-21 21:30N 53°51' E 008°01'714.3
2018-Apr-21 21:00N 53°46' E 008°11'815.1
2018-Apr-21 20:30N 53°42' E 008°21'815.7
2018-Apr-21 20:00N 53°36' E 008°30'3 5.6
2018-Apr-21 19:28N 53°34' E 008°33'0 0.0
2018-Apr-21 18:58N 53°34' E 008°33'0 0.0
2018-Apr-21 18:31N 53°34' E 008°33'0 0.0
2018-Apr-21 18:00N 53°34' E 008°33'0 0.0
2018-Apr-21 17:30N 53°34' E 008°33'0 0.0
2018-Apr-21 17:00N 53°34' E 008°33'0 0.0
2018-Apr-21 16:30N 53°34' E 008°33'0 0.0
2018-Apr-21 15:59N 53°34' E 008°33'0 0.0
2018-Apr-21 15:29N 53°34' E 008°33'0 0.0
2018-Apr-21 14:59N 53°34' E 008°33'0 0.0
2018-Apr-21 14:30N 53°34' E 008°33'1 2.8
2018-Apr-21 14:00N 53°35' E 008°32'815.1
2018-Apr-21 13:30N 53°40' E 008°23'916.8
2018-Apr-21 13:00N 53°46' E 008°11'816.2
2018-Apr-21 12:30N 53°51' E 008°01'714.2
2018-Apr-21 12:00N 53°52' E 007°49'3416.2
2018-Apr-21 09:54N 53°49' E 006°52'1216.3
2018-Apr-21 09:11N 53°47' E 006°33'316.2
2018-Apr-21 09:00N 53°46' E 006°28'1016.0
2018-Apr-21 08:23N 53°43' E 006°12'615.8
2018-Apr-21 07:59N 53°41' E 006°02'815.6
2018-Apr-21 07:27N 53°39' E 005°48'715.3
2018-Apr-21 07:00N 53°36' E 005°38'715.0
2018-Apr-21 06:31N 53°34' E 005°26'714.9
2018-Apr-21 06:01N 53°31' E 005°14'714.5
2018-Apr-21 05:31N 53°29' E 005°03'714.6
2018-Apr-21 05:01N 53°26' E 004°51'714.0
2018-Apr-21 04:31N 53°22' E 004°42'714.5
2018-Apr-21 04:00N 53°16' E 004°36'714.5
2018-Apr-21 03:30N 53°09' E 004°31'714.4
2018-Apr-21 03:01N 53°03' E 004°25'714.5
2018-Apr-21 02:31N 52°56' E 004°20'714.3
2018-Apr-21 02:00N 52°51' E 004°12'714.3
2018-Apr-21 01:31N 52°45' E 004°04'714.3
2018-Apr-21 01:01N 52°40' E 003°57'714.1
2018-Apr-21 00:30N 52°34' E 003°49'714.0
2018-Apr-21 00:01N 52°29' E 003°42'714.0
2018-Apr-20 23:31N 52°24' E 003°35'714.0
2018-Apr-20 23:00N 52°19' E 003°26'713.9
2018-Apr-20 22:30N 52°14' E 003°18'714.5
2018-Apr-20 22:01N 52°09' E 003°10'814.8
2018-Apr-20 21:29N 52°04' E 003°00'1314.7
2018-Apr-20 20:35N 51°58' E 002°41'115.4
2018-Apr-20 20:30N 51°57' E 002°39'815.6
2018-Apr-20 20:00N 51°55' E 002°27'815.9
2018-Apr-20 19:30N 51°54' E 002°14'816.3
2018-Apr-20 19:00N 51°51' E 002°02'816.0
2018-Apr-20 18:31N 51°47' E 001°51'917.0
2018-Apr-20 18:00N 51°39' E 001°48'817.0
2018-Apr-20 17:31N 51°33' E 001°38'714.5
2018-Apr-20 17:00N 51°29' E 001°29'611.5
2018-Apr-20 16:30N 51°29' E 001°19'712.7
2018-Apr-20 15:59N 51°29' E 001°09'911.6
2018-Apr-20 15:15N 51°29' E 000°55'310.6
2018-Apr-20 15:00N 51°29' E 000°51'510.5
2018-Apr-20 14:30N 51°30' E 000°43'510.0
2018-Apr-20 14:00N 51°30' E 000°35'5 9.0
2018-Apr-20 13:30N 51°29' E 000°28'4 7.9
2018-Apr-20 13:01N 51°27' E 000°23'0 0.9
2018-Apr-20 12:31N 51°27' E 000°22'0 0.0
2018-Apr-20 12:01N 51°27' E 000°22'0 0.0
2018-Apr-20 11:31N 51°27' E 000°22'0 0.0
2018-Apr-20 11:00N 51°27' E 000°22'0 0.0
2018-Apr-20 10:30N 51°27' E 000°22'0 0.0
2018-Apr-20 10:00N 51°27' E 000°22'0 0.0
2018-Apr-20 09:30N 51°27' E 000°22'0 0.0
2018-Apr-20 09:00N 51°27' E 000°22'0 0.0
2018-Apr-20 08:30N 51°27' E 000°22'3 5.7
2018-Apr-20 08:00N 51°27' E 000°26'5 9.7
2018-Apr-20 07:30N 51°30' E 000°33'611.3
2018-Apr-20 07:00N 51°30' E 000°42'611.2
2018-Apr-20 06:29N 51°30' E 000°51'511.2
2018-Apr-20 06:00N 51°29' E 000°60'611.7
2018-Apr-20 05:30N 51°29' E 001°09'711.7
2018-Apr-20 04:55N 51°29' E 001°20'512.2
2018-Apr-20 04:30N 51°27' E 001°28'713.2
2018-Apr-20 04:01N 51°22' E 001°35'816.1
2018-Apr-20 03:30N 51°15' E 001°38'917.1
2018-Apr-20 03:00N 51°06' E 001°39'1019.3
2018-Apr-20 02:30N 50°58' E 001°32'1020.1
2018-Apr-20 02:00N 50°48' E 001°27'4217.7
2018-Apr-19 23:37N 50°26' E 000°30'319.4
2018-Apr-19 23:29N 50°25' E 000°26'1019.7
2018-Apr-19 23:00N 50°22' E 000°12'1019.7
2018-Apr-19 22:30N 50°19' W 000°02'1019.6
2018-Apr-19 22:00N 50°16' W 000°17'1019.7
2018-Apr-19 21:30N 50°13' W 000°32'1019.6
2018-Apr-19 21:00N 50°10' W 000°46'1019.3
2018-Apr-19 20:30N 50°08' W 001°01'918.8
2018-Apr-19 20:01N 50°06' W 001°15'918.0
2018-Apr-19 19:30N 50°03' W 001°29'917.1
2018-Apr-19 19:00N 50°01' W 001°42'816.4
2018-Apr-19 18:30N 49°59' W 001°54'815.7
2018-Apr-19 18:01N 49°57' W 002°06'715.0
2018-Apr-19 17:31N 49°55' W 002°17'814.7
2018-Apr-19 16:56N 49°52' W 002°29'614.7
2018-Apr-19 16:30N 49°50' W 002°39'714.8
2018-Apr-19 16:00N 49°48' W 002°50'714.9
2018-Apr-19 15:30N 49°44' W 002°60'815.1
2018-Apr-19 15:00N 49°41' W 003°10'715.0
2018-Apr-19 14:31N 49°38' W 003°21'1014.9
2018-Apr-19 13:50N 49°34' W 003°34'1714.9
2018-Apr-19 12:42N 49°26' W 003°57'11016.0
2018-Apr-19 05:48N 48°13' W 006°04'48615.7
2018-Apr-17 22:50N 40°33' W 009°45'515.3
2018-Apr-17 22:30N 40°28' W 009°46'815.2
2018-Apr-17 22:01N 40°21' W 009°46'815.3
2018-Apr-17 21:30N 40°13' W 009°46'815.3
2018-Apr-17 21:00N 40°05' W 009°46'815.3
2018-Apr-17 20:30N 39°58' W 009°46'815.4
2018-Apr-17 19:59N 39°50' W 009°45'715.3
2018-Apr-17 19:30N 39°42' W 009°45'815.5
2018-Apr-17 19:00N 39°35' W 009°45'815.6
2018-Apr-17 18:31N 39°27' W 009°45'815.6
2018-Apr-17 18:01N 39°19' W 009°45'815.5
2018-Apr-17 17:30N 39°11' W 009°44'815.4
2018-Apr-17 17:00N 39°04' W 009°44'815.2
2018-Apr-17 16:30N 38°56' W 009°43'815.4
2018-Apr-17 16:00N 38°48' W 009°42'815.4
2018-Apr-17 15:31N 38°41' W 009°41'713.0
2018-Apr-17 15:01N 38°38' W 009°34'713.9
2018-Apr-17 14:31N 38°37' W 009°25'510.5
2018-Apr-17 14:00N 38°40' W 009°19'5 8.6
2018-Apr-17 13:25N 38°41' W 009°13'4 9.5
2018-Apr-17 13:00N 38°42' W 009°08'1 2.1
2018-Apr-17 12:29N 38°43' W 009°07'0 0.0
2018-Apr-17 11:58N 38°43' W 009°07'0 0.0
2018-Apr-17 11:28N 38°43' W 009°07'0 0.0
2018-Apr-17 10:58N 38°43' W 009°07'0 0.0
2018-Apr-17 10:28N 38°43' W 009°07'0 0.1
2018-Apr-17 09:58N 38°43' W 009°07'0 0.0
2018-Apr-17 09:28N 38°43' W 009°07'0 0.0
2018-Apr-17 08:55N 38°43' W 009°07'0 0.0
2018-Apr-17 08:27N 38°43' W 009°07'0 0.0
2018-Apr-17 08:00N 38°43' W 009°07'0 0.0
2018-Apr-17 07:30N 38°43' W 009°07'0 0.0
2018-Apr-17 07:00N 38°43' W 009°07'0 0.0
2018-Apr-17 06:30N 38°43' W 009°07'0 0.0
2018-Apr-17 05:59N 38°43' W 009°07'2 3.2
2018-Apr-17 05:30N 38°42' W 009°09'5 9.7
2018-Apr-17 04:56N 38°41' W 009°16'512.2
2018-Apr-17 04:30N 38°38' W 009°21'713.4
2018-Apr-17 04:00N 38°33' W 009°27'5 9.7
2018-Apr-17 03:30N 38°31' W 009°33'3 5.3
2018-Apr-17 03:00N 38°30' W 009°30'611.9
2018-Apr-17 02:30N 38°24' W 009°28'611.9
2018-Apr-17 02:00N 38°18' W 009°27'611.6
2018-Apr-17 01:30N 38°12' W 009°26'611.5
2018-Apr-17 01:00N 38°07' W 009°24'611.5
2018-Apr-17 00:30N 38°01' W 009°24'611.5
2018-Apr-17 00:00N 37°55' W 009°23'611.7
2018-Apr-16 23:30N 37°50' W 009°22'611.8
2018-Apr-16 23:00N 37°44' W 009°22'612.0
2018-Apr-16 22:30N 37°37' W 009°22'  

Dump ship's entire track history